createdAt,value
2022-08-22T00:03:07.734Z,93016.88
2022-08-22T00:03:17.374Z,92995.09
2022-08-22T00:18:23.441Z,93001.59
2022-08-22T00:33:45.169Z,92984.41
2022-08-22T00:48:46.726Z,92966.72
2022-08-22T01:03:52.493Z,92963.63
2022-08-22T01:18:54.042Z,92963.88
2022-08-22T01:33:58.604Z,92974.00
2022-08-22T01:49:22.245Z,92975.91
2022-08-22T02:04:39.769Z,92974.28
2022-08-22T02:20:01.241Z,92976.31
2022-08-22T02:35:07.489Z,92962.63
2022-08-22T02:50:12.776Z,92974.69
2022-08-22T03:05:37.977Z,92980.56
2022-08-22T03:20:51.490Z,92986.19
2022-08-22T03:35:58.214Z,92987.25
2022-08-22T03:51:18.591Z,92988.56
2022-08-22T04:06:22.004Z,92982.94
2022-08-22T04:21:41.562Z,92926.50
2022-08-22T04:36:46.057Z,92996.03
2022-08-22T04:51:47.609Z,93004.91
2022-08-22T05:07:00.328Z,93004.09
2022-08-22T05:22:02.430Z,93025.44
2022-08-22T05:37:13.194Z,93036.03
2022-08-22T05:52:33.567Z,93055.88
2022-08-22T06:07:42.213Z,93071.91
2022-08-22T06:22:51.176Z,93068.06
2022-08-22T06:37:55.768Z,93075.19
2022-08-22T06:53:00.170Z,93070.84
2022-08-22T07:08:09.144Z,93070.88
2022-08-22T07:23:12.929Z,93077.63
2022-08-22T07:38:25.079Z,93076.28
2022-08-22T07:53:29.480Z,93071.19
2022-08-22T08:08:41.936Z,93070.09
2022-08-22T08:23:46.306Z,93066.16
2022-08-22T08:38:48.343Z,93070.94
2022-08-22T08:54:09.496Z,93049.56
2022-08-22T09:09:34.031Z,93063.31
2022-08-22T09:24:47.463Z,93064.66
2022-08-22T09:39:57.885Z,93064.38
2022-08-22T09:55:02.431Z,93048.66
2022-08-22T10:10:11.457Z,93027.78
2022-08-22T10:25:16.174Z,93021.72
2022-08-22T10:40:26.282Z,92999.94
2022-08-22T10:55:28.706Z,92989.00
2022-08-22T11:10:49.035Z,92984.28
2022-08-22T11:26:05.008Z,92971.09
2022-08-22T11:41:36.041Z,92988.06
2022-08-22T11:56:50.188Z,92974.81
2022-08-22T12:11:59.521Z,92969.91
2022-08-22T12:27:08.217Z,92963.63
2022-08-22T12:42:15.908Z,92922.44
2022-08-22T12:57:27.001Z,92920.66
2022-08-22T13:12:33.360Z,92943.59
2022-08-22T13:27:35.287Z,92957.06
2022-08-22T13:42:43.328Z,92968.50
2022-08-22T13:57:52.322Z,92993.97
2022-08-22T14:12:56.658Z,93054.72
2022-08-22T14:28:01.074Z,93062.78
2022-08-22T14:43:07.460Z,93070.50
2022-08-22T14:58:15.252Z,93047.22
2022-08-22T15:13:22.234Z,92999.22
2022-08-22T15:28:27.844Z,92983.88
2022-08-22T15:43:44.718Z,93003.50
2022-08-22T15:58:54.928Z,93032.91
2022-08-22T16:14:16.782Z,93082.25
2022-08-22T16:29:21.064Z,93073.59
2022-08-22T16:44:33.472Z,93054.31
2022-08-22T16:59:52.023Z,93043.38
2022-08-22T17:15:04.069Z,93037.00
2022-08-22T17:30:12.000Z,93034.97
2022-08-22T17:45:13.567Z,93041.16
2022-08-22T18:00:18.011Z,93051.66
2022-08-22T18:15:49.494Z,93066.88
2022-08-22T18:30:55.230Z,93073.94
2022-08-22T18:46:03.612Z,93094.53
2022-08-22T19:01:31.037Z,93109.22
2022-08-22T19:16:42.950Z,93109.53
2022-08-22T19:31:49.431Z,93120.72
2022-08-22T19:47:24.362Z,93121.41
2022-08-22T20:02:44.385Z,93118.13
2022-08-22T20:18:11.541Z,93119.44
2022-08-22T20:33:10.286Z,93115.72
2022-08-22T20:48:11.796Z,93119.16
2022-08-22T21:03:13.268Z,93137.72
2022-08-22T21:18:24.627Z,93121.59
2022-08-22T21:33:26.255Z,93119.69
2022-08-22T21:48:33.614Z,93120.38
2022-08-22T22:16:08.873Z,93088.59
2022-08-22T22:31:10.556Z,93071.03
2022-08-22T22:46:12.117Z,93042.19
2022-08-22T23:01:15.557Z,93050.53
2022-08-22T23:16:27.339Z,93059.81
2022-08-22T23:31:39.602Z,93003.59
2022-08-22T23:46:41.456Z,93097.06
